Time;durP1;ratioP1;P1;durP2;ratioP2;P2;SDS_P1;SDS_P2;PMS_P1;PMS_P2;Temp;Humidity;BMP_temperature;BMP_pressure;BME280_temperature;BME280_humidity;BME280_pressure;Samples;Min_cycle;Max_cycle;Signal;HPM_P1;HPM_P2
2023/02/10 00:01:44;;;;;;;22.03;12.70;;;0.30;99.90;;;0.14;53.69;101646.88;5053847;28;20210;-75
2023/02/10 00:04:14;;;;;;;23.17;12.53;;;0.30;99.90;;;0.14;53.56;101639.25;5055724;28;20198;-72
2023/02/10 00:06:43;;;;;;;20.70;11.97;;;0.30;99.90;;;0.13;53.51;101635.00;5050205;28;20255;-75
2023/02/10 00:09:14;;;;;;;22.20;11.80;;;0.20;99.90;;;0.11;53.71;101632.38;5054569;28;20202;-74
2023/02/10 00:11:59;;;;;;;22.50;11.53;;;0.30;99.90;;;0.10;53.87;101629.75;5050967;28;20233;-73
2023/02/10 00:14:30;;;;;;;21.40;11.93;;;0.30;99.90;;;0.10;53.57;101615.41;5043214;28;20194;-74
2023/02/10 00:16:59;;;;;;;22.50;12.00;;;0.20;99.90;;;0.07;53.54;101609.28;5051805;28;20194;-74
2023/02/10 00:19:30;;;;;;;20.10;11.93;;;0.30;99.90;;;0.07;53.99;101609.28;5052640;28;20579;-74
2023/02/10 00:22:00;;;;;;;19.03;10.00;;;0.20;99.90;;;0.03;53.90;101595.59;5053222;28;20310;-74
2023/02/10 00:24:29;;;;;;;22.63;11.17;;;0.20;99.90;;;0.04;53.73;101604.06;5051401;28;20505;-75
2023/02/10 00:26:58;;;;;;;21.33;11.43;;;0.20;99.90;;;0.03;54.25;101580.38;5051294;28;20210;-74
2023/02/10 00:29:27;;;;;;;18.87;11.00;;;0.20;99.90;;;0.01;53.93;101594.63;5050840;28;20226;-75
2023/02/10 00:31:57;;;;;;;20.80;11.57;;;0.20;99.90;;;0.02;54.20;101598.91;5053206;28;20241;-75
2023/02/10 00:34:27;;;;;;;23.63;12.07;;;0.20;99.90;;;-0.03;54.43;101613.88;5054104;28;20267;-74
2023/02/10 00:36:57;;;;;;;17.83;10.87;;;0.20;99.90;;;-0.02;54.47;101605.47;5051745;28;20236;-74
2023/02/10 00:39:26;;;;;;;22.97;11.47;;;0.20;99.90;;;-0.01;54.14;101616.47;5053050;28;20228;-74
2023/02/10 00:41:54;;;;;;;20.17;11.60;;;0.20;99.90;;;0.00;54.85;101628.38;5042103;28;20210;-75
2023/02/10 00:44:22;;;;;;;19.63;11.83;;;0.10;99.90;;;-0.01;54.36;101609.75;5052869;28;20209;-76
2023/02/10 00:46:51;;;;;;;27.43;13.53;;;0.20;99.90;;;0.00;54.68;101610.66;5050610;28;20720;-72
2023/02/10 00:49:22;;;;;;;21.03;11.70;;;0.10;99.90;;;0.01;54.40;101614.91;5053877;28;20284;-73
2023/02/10 00:51:50;;;;;;;20.50;11.80;;;0.10;99.90;;;0.01;54.54;101598.84;5049909;28;20255;-74
2023/02/10 00:54:20;;;;;;;21.27;11.17;;;0.10;99.90;;;-0.01;54.39;101589.47;5053684;28;20205;-74
2023/02/10 00:56:49;;;;;;;20.90;11.87;;;0.10;99.90;;;-0.02;54.83;101602.94;5054866;28;20591;-72
2023/02/10 00:59:17;;;;;;;20.07;11.17;;;0.10;99.90;;;-0.02;54.69;101599.53;5055102;28;20583;-75
2023/02/10 01:01:45;;;;;;;20.30;11.80;;;0.10;99.90;;;-0.04;54.56;101596.94;5051783;28;20217;-74
2023/02/10 01:04:14;;;;;;;22.20;11.23;;;0.10;99.90;;;-0.06;54.94;101597.63;5051873;28;20252;-72
2023/02/10 01:06:43;;;;;;;18.17;11.33;;;0.00;99.90;;;-0.08;54.82;101607.66;5052825;28;20308;-75
2023/02/10 01:09:11;;;;;;;18.73;10.97;;;0.00;99.90;;;-0.09;54.88;101605.91;5051864;28;20232;-73
2023/02/10 01:11:41;;;;;;;20.63;11.30;;;0.00;99.90;;;-0.08;54.74;101609.31;5050132;28;20271;-75
2023/02/10 01:14:10;;;;;;;23.20;12.43;;;0.00;99.90;;;-0.11;54.98;101599.91;5057903;28;20720;-74
2023/02/10 01:16:38;;;;;;;21.90;10.90;;;0.00;99.90;;;-0.13;55.32;101596.38;5057763;28;20561;-73
2023/02/10 01:19:06;;;;;;;19.87;11.20;;;0.00;99.90;;;-0.14;55.15;101591.25;5057383;28;20201;-74
2023/02/10 01:21:36;;;;;;;19.70;10.87;;;0.00;99.90;;;-0.14;55.00;101598.84;5053615;28;20607;-73
2023/02/10 01:24:06;;;;;;;21.43;11.17;;;0.00;99.90;;;-0.15;55.14;101599.63;5057825;28;20252;-72
2023/02/10 01:26:35;;;;;;;21.37;11.97;;;0.00;99.90;;;-0.16;55.08;101583.53;5057494;28;20312;-72
2023/02/10 01:29:06;;;;;;;21.57;11.63;;;0.00;99.90;;;-0.17;55.01;101589.41;5054686;28;20226;-75
2023/02/10 01:31:34;;;;;;;21.33;11.43;;;0.00;99.90;;;-0.18;55.17;101587.66;5056025;28;20245;-75
2023/02/10 01:34:02;;;;;;;19.63;11.30;;;0.00;99.90;;;-0.19;55.44;101588.44;5056417;28;20237;-73
2023/02/10 01:36:31;;;;;;;20.10;11.30;;;0.00;99.90;;;-0.19;55.04;101585.91;5055687;28;20602;-73
2023/02/10 01:38:59;;;;;;;19.43;11.13;;;0.00;99.90;;;-0.21;55.14;101587.50;5054523;28;20659;-73
2023/02/10 01:41:30;;;;;;;23.67;11.83;;;-0.10;99.90;;;-0.25;55.19;101598.25;5055443;28;20218;-75
2023/02/10 01:44:04;;;;;;;23.50;11.53;;;-0.10;99.90;;;-0.25;55.45;101593.19;5058312;28;20218;-74
2023/02/10 01:46:36;;;;;;;18.70;10.87;;;-0.10;99.90;;;-0.28;55.56;101593.88;5058331;28;20205;-73
2023/02/10 01:49:09;;;;;;;19.73;11.27;;;-0.10;99.90;;;-0.28;55.60;101585.41;5057765;28;20202;-68
2023/02/10 01:51:43;;;;;;;21.20;11.13;;;-0.10;99.90;;;-0.31;55.56;101592.81;5055069;28;20250;-74
2023/02/10 01:54:16;;;;;;;21.00;11.53;;;-0.10;99.90;;;-0.34;55.60;101579.97;5053781;28;20245;-72
2023/02/10 01:56:45;;;;;;;19.17;10.97;;;-0.20;99.90;;;-0.37;55.79;101583.22;5054352;28;20243;-74
2023/02/10 01:59:14;;;;;;;18.50;10.67;;;-0.20;99.90;;;-0.39;56.16;101576.31;5056861;28;20574;-76
2023/02/10 02:01:44;;;;;;;20.70;10.90;;;-0.20;99.90;;;-0.39;55.85;101591.50;5057416;28;20209;-72
2023/02/10 02:04:12;;;;;;;22.73;11.83;;;-0.20;99.90;;;-0.42;56.59;101587.13;5059283;28;20198;-73
2023/02/10 02:06:42;;;;;;;19.80;10.90;;;-0.30;99.90;;;-0.46;56.38;101574.22;5055053;28;20210;-73
2023/02/10 02:09:11;;;;;;;22.30;11.50;;;-0.30;99.90;;;-0.50;56.13;101581.63;5056291;28;20208;-73
2023/02/10 02:11:55;;;;;;;19.20;11.30;;;-0.30;99.90;;;-0.51;56.61;101572.31;5047766;28;20221;-72
2023/02/10 02:14:37;;;;;;;17.63;10.57;;;-0.30;99.90;;;-0.52;56.61;101565.47;5055295;28;20202;-73
2023/02/10 02:17:18;;;;;;;18.27;10.67;;;-0.30;99.90;;;-0.55;57.19;101557.72;5057870;28;20570;-73
2023/02/10 02:20:43;;;;;;;24.97;12.47;;;-0.40;99.90;;;-0.57;56.69;101556.75;5055563;28;20242;-72
2023/02/10 02:24:01;;;;;;;22.17;11.60;;;-0.40;99.90;;;-0.57;56.70;101555.88;5055345;28;20237;-71
2023/02/10 02:27:16;;;;;;;19.47;11.17;;;-0.40;99.90;;;-0.60;57.14;101558.22;5036890;28;20229;-72
2023/02/10 02:30:24;;;;;;;20.97;11.80;;;-0.40;99.90;;;-0.61;56.63;101572.53;5050033;28;20226;-72
2023/02/10 02:33:01;;;;;;;21.23;11.30;;;-0.40;99.90;;;-0.62;57.22;101577.53;5040842;28;20225;-71
2023/02/10 02:35:39;;;;;;;20.97;11.27;;;-0.40;99.90;;;-0.65;57.21;101575.69;5053466;28;20198;-73
2023/02/10 02:38:08;;;;;;;21.33;12.43;;;-0.40;99.90;;;-0.64;57.28;101581.63;5055119;28;20252;-71
2023/02/10 02:40:36;;;;;;;19.90;11.30;;;-0.40;99.90;;;-0.65;57.28;101582.41;5049086;28;20758;-66
2023/02/10 02:43:05;;;;;;;18.90;11.07;;;-0.50;99.90;;;-0.67;57.33;101577.25;5042836;28;20651;-74
2023/02/10 02:45:46;;;;;;;22.70;11.50;;;-0.50;99.90;;;-0.69;57.52;101571.22;5050361;28;20206;-76
2023/02/10 02:48:42;;;;;;;19.83;11.87;;;-0.50;99.90;;;-0.67;57.62;101572.19;5053201;28;20241;-74
2023/02/10 02:51:21;;;;;;;20.73;11.47;;;-0.50;99.90;;;-0.68;57.68;101577.16;5045108;28;20216;-73
2023/02/10 02:54:01;;;;;;;20.03;12.00;;;-0.50;99.90;;;-0.68;57.71;101567.91;5054728;28;20194;-75
2023/02/10 02:56:41;;;;;;;19.63;11.77;;;-0.50;99.90;;;-0.70;57.72;101559.38;5053910;28;20198;-71
2023/02/10 02:59:18;;;;;;;21.60;12.30;;;-0.50;99.90;;;-0.70;57.76;101561.91;5042672;28;20198;-72
2023/02/10 03:01:55;;;;;;;21.63;11.53;;;-0.50;99.90;;;-0.74;57.68;101562.47;5048813;28;20254;-70
2023/02/10 03:04:28;;;;;;;21.33;10.60;;;-0.50;99.90;;;-0.71;57.96;101570.25;5052734;28;20198;-75
2023/02/10 03:06:57;;;;;;;20.90;11.13;;;-0.50;99.90;;;-0.70;57.71;101571.13;5050575;28;20206;-73
2023/02/10 03:09:25;;;;;;;20.30;12.00;;;-0.40;99.90;;;-0.68;58.08;101572.09;5042339;28;20224;-73
2023/02/10 03:11:54;;;;;;;21.63;11.73;;;-0.50;99.90;;;-0.63;57.92;101570.69;5052581;28;20221;-73
2023/02/10 03:14:23;;;;;;;23.37;12.57;;;-0.40;99.90;;;-0.65;57.69;101568.09;5053046;28;20209;-72
2023/02/10 03:16:52;;;;;;;23.50;11.63;;;-0.40;99.90;;;-0.58;57.46;101570.19;5051963;28;20576;-70
2023/02/10 03:19:20;;;;;;;21.47;11.43;;;-0.40;99.90;;;-0.53;57.43;101560.31;5040291;28;20233;-75
2023/02/10 03:21:50;;;;;;;23.53;11.93;;;-0.40;99.90;;;-0.52;57.35;101554.47;5048193;28;20202;-73
2023/02/10 03:24:18;;;;;;;28.80;11.37;;;-0.30;99.90;;;-0.51;57.85;101551.19;5053389;28;20638;-72
2023/02/10 03:26:47;;;;;;;18.63;11.00;;;-0.30;99.90;;;-0.52;57.69;101552.81;5052998;28;20678;-72
2023/02/10 03:29:17;;;;;;;19.17;11.07;;;-0.30;99.90;;;-0.52;57.49;101549.41;5053675;28;20226;-73
2023/02/10 03:31:45;;;;;;;20.77;11.37;;;-0.30;99.90;;;-0.54;57.42;101558.59;5053113;28;20641;-73
2023/02/10 03:34:14;;;;;;;19.47;10.90;;;-0.40;99.90;;;-0.55;57.46;101566.97;5050972;28;20540;-74
2023/02/10 03:36:43;;;;;;;21.00;11.27;;;-0.40;99.90;;;-0.56;57.17;101573.66;5050090;28;20297;-74
2023/02/10 03:39:13;;;;;;;16.43;10.60;;;-0.40;99.90;;;-0.58;57.46;101564.25;5048705;28;20260;-72
2023/02/10 03:41:42;;;;;;;21.47;11.70;;;-0.40;99.90;;;-0.63;57.42;101558.91;5052689;28;20286;-71
2023/02/10 03:44:10;;;;;;;20.47;11.23;;;-0.50;99.90;;;-0.66;57.77;101552.81;5052596;28;20665;-73
2023/02/10 03:46:38;;;;;;;20.23;11.23;;;-0.50;99.90;;;-0.71;57.64;101542.41;5048005;28;20244;-72
2023/02/10 03:49:07;;;;;;;21.90;11.30;;;-0.50;99.90;;;-0.71;57.93;101551.66;5051512;28;20210;-75
2023/02/10 03:51:35;;;;;;;17.27;10.60;;;-0.50;99.90;;;-0.74;57.59;101537.16;5049983;28;20946;-75
2023/02/10 03:54:04;;;;;;;18.67;10.43;;;-0.60;99.90;;;-0.75;58.29;101550.63;5052548;28;20319;-73
2023/02/10 03:56:34;;;;;;;22.30;11.57;;;-0.60;99.90;;;-0.78;57.61;101551.31;5045484;28;20221;-73
2023/02/10 03:59:02;;;;;;;18.73;10.63;;;-0.60;99.90;;;-0.82;58.11;101558.63;5051585;28;20214;-74
2023/02/10 04:01:33;;;;;;;16.97;11.40;;;-0.60;99.90;;;-0.84;58.26;101571.22;5050154;28;20267;-73
2023/02/10 04:04:01;;;;;;;18.90;9.80;;;-0.70;99.90;;;-0.84;58.36;101575.41;5052616;28;20205;-74
2023/02/10 04:06:30;;;;;;;20.70;11.23;;;-0.60;99.90;;;-0.86;57.88;101562.63;5049354;28;20248;-73
2023/02/10 04:08:58;;;;;;;19.60;11.33;;;-0.70;99.90;;;-0.87;58.06;101565.97;5051035;28;20228;-75
2023/02/10 04:11:27;;;;;;;20.07;11.33;;;-0.70;99.90;;;-0.88;58.50;101559.16;5051861;28;20263;-73
2023/02/10 04:13:56;;;;;;;17.50;10.50;;;-0.70;99.90;;;-0.88;58.26;101563.34;5050279;28;20261;-76
2023/02/10 04:16:27;;;;;;;19.33;10.57;;;-0.70;99.90;;;-0.93;58.89;101563.06;5050241;28;20264;-72
2023/02/10 04:18:56;;;;;;;21.10;11.07;;;-0.70;99.90;;;-0.94;58.69;101568.03;5051935;28;20697;-75
2023/02/10 04:21:24;;;;;;;17.83;11.03;;;-0.80;99.90;;;-0.94;58.88;101562.97;5051405;28;20628;-74
2023/02/10 04:23:53;;;;;;;20.33;11.63;;;-0.80;99.90;;;-1.00;58.53;101568.53;5052479;28;20205;-72
2023/02/10 04:26:22;;;;;;;23.33;12.97;;;-0.80;99.90;;;-1.01;59.11;101574.38;5049571;28;20202;-71
2023/02/10 04:28:50;;;;;;;18.57;11.03;;;-0.80;99.90;;;-1.04;58.53;101564.94;5047708;28;20229;-74
2023/02/10 04:31:20;;;;;;;19.03;11.37;;;-0.80;99.90;;;-1.04;59.10;101576.72;5047628;28;20278;-74
2023/02/10 04:33:49;;;;;;;21.40;11.37;;;-0.90;99.90;;;-1.06;58.63;101569.06;5052042;28;20233;-73
2023/02/10 04:36:17;;;;;;;19.97;11.43;;;-0.90;99.90;;;-1.05;59.21;101580.91;5049874;28;20260;-72
2023/02/10 04:38:45;;;;;;;19.70;10.73;;;-0.90;99.90;;;-1.07;59.16;101572.38;5050721;28;20240;-73
2023/02/10 04:41:15;;;;;;;17.13;11.30;;;-0.90;99.90;;;-1.09;58.80;101573.94;5049298;28;20258;-74
2023/02/10 04:43:43;;;;;;;20.07;10.93;;;-0.90;99.90;;;-1.10;59.30;101576.38;5050841;28;20209;-74
2023/02/10 04:46:11;;;;;;;22.10;12.53;;;-0.90;99.90;;;-1.13;59.82;101574.53;5049263;28;20217;-72
2023/02/10 04:48:41;;;;;;;17.90;10.80;;;-0.90;99.90;;;-1.16;59.30;101564.22;5046647;28;20209;-73
2023/02/10 04:51:11;;;;;;;20.77;11.57;;;-0.90;99.90;;;-1.15;59.27;101565.97;5051631;28;20256;-75
2023/02/10 04:53:43;;;;;;;22.60;11.43;;;-0.90;99.90;;;-1.14;59.84;101567.75;5051987;28;20268;-72
2023/02/10 04:56:13;;;;;;;20.67;11.63;;;-0.90;99.90;;;-1.10;59.86;101561.22;5050667;28;20209;-75
2023/02/10 04:58:42;;;;;;;22.10;11.60;;;-0.90;99.90;;;-1.08;59.88;101557.09;5049348;28;20241;-73
2023/02/10 05:01:13;;;;;;;20.73;11.43;;;-0.80;99.90;;;-1.05;59.31;101565.75;5048857;28;20213;-73
2023/02/10 05:03:42;;;;;;;20.93;11.77;;;-0.80;99.90;;;-1.03;59.40;101564.19;5050916;28;20240;-73
2023/02/10 05:06:13;;;;;;;18.50;11.13;;;-0.80;99.90;;;-1.00;59.38;101556.75;5049655;28;20248;-75
2023/02/10 05:08:41;;;;;;;22.63;11.33;;;-0.70;99.90;;;-0.97;59.74;101551.88;5050666;28;20721;-75
2023/02/10 05:11:11;;;;;;;25.07;11.40;;;-0.70;99.90;;;-0.93;59.40;101554.59;5050216;28;20259;-73
2023/02/10 05:13:40;;;;;;;21.43;11.23;;;-0.70;99.90;;;-0.90;59.17;101544.66;5049660;28;20229;-73
2023/02/10 05:16:12;;;;;;;20.83;11.43;;;-0.60;99.90;;;-0.86;58.95;101552.53;5048759;28;20263;-72
2023/02/10 05:18:42;;;;;;;19.43;11.00;;;-0.60;99.90;;;-0.79;59.38;101553.75;5048821;28;20264;-73
2023/02/10 05:21:13;;;;;;;21.00;11.57;;;-0.50;99.90;;;-0.78;58.72;101550.44;5043576;28;20206;-73
2023/02/10 05:23:42;;;;;;;18.83;11.47;;;-0.50;99.90;;;-0.77;58.92;101539.56;5050948;28;20210;-75
2023/02/10 05:26:10;;;;;;;21.37;11.37;;;-0.50;99.90;;;-0.75;59.03;101540.50;5049738;28;20213;-73
2023/02/10 05:28:39;;;;;;;21.47;11.57;;;-0.50;99.90;;;-0.73;58.80;101533.88;5051532;28;20230;-73
2023/02/10 05:31:08;;;;;;;23.47;12.03;;;-0.50;99.90;;;-0.74;58.88;101530.47;5049729;28;20246;-74
2023/02/10 05:33:37;;;;;;;18.33;10.70;;;-0.50;99.90;;;-0.68;58.58;101539.19;5049015;28;20230;-73
2023/02/10 05:36:08;;;;;;;19.57;11.07;;;-0.40;99.90;;;-0.65;58.55;101552.03;5048293;28;20247;-73
2023/02/10 05:38:36;;;;;;;19.30;11.27;;;-0.40;99.90;;;-0.65;58.88;101560.50;5044023;28;20206;-75
2023/02/10 05:41:05;;;;;;;23.27;10.77;;;-0.40;99.90;;;-0.63;58.79;101553.84;5049870;28;20202;-74
2023/02/10 05:43:33;;;;;;;22.13;12.00;;;-0.40;99.90;;;-0.61;58.71;101559.03;5051242;28;20287;-75
2023/02/10 05:46:01;;;;;;;20.57;11.90;;;-0.40;99.90;;;-0.61;58.73;101559.88;5049626;28;20233;-73
2023/02/10 05:48:30;;;;;;;23.27;12.17;;;-0.40;99.90;;;-0.60;58.67;101556.56;5051044;28;20661;-73
2023/02/10 05:50:58;;;;;;;17.47;11.17;;;-0.40;99.90;;;-0.59;58.95;101563.41;5042757;28;20202;-73
2023/02/10 05:53:28;;;;;;;24.87;12.77;;;-0.40;99.90;;;-0.57;59.09;101564.34;5038083;28;20230;-75
2023/02/10 05:55:57;;;;;;;17.83;10.90;;;-0.30;99.90;;;-0.56;58.68;101571.13;5046820;28;20241;-73
2023/02/10 05:58:27;;;;;;;23.20;11.87;;;-0.40;99.90;;;-0.56;59.10;101566.06;5050929;28;20224;-74
2023/02/10 06:00:56;;;;;;;23.37;12.37;;;-0.40;99.90;;;-0.55;59.25;101565.31;5049782;28;20642;-73
2023/02/10 06:03:24;;;;;;;22.83;11.80;;;-0.30;99.90;;;-0.54;58.86;101577.19;5048614;28;20219;-73
2023/02/10 06:05:53;;;;;;;22.40;12.10;;;-0.30;99.90;;;-0.53;59.67;101568.78;5050426;28;20570;-73
2023/02/10 06:08:21;;;;;;;19.60;11.20;;;-0.30;99.90;;;-0.50;59.40;101568.97;5052990;28;20230;-72
2023/02/10 06:10:51;;;;;;;17.30;10.63;;;-0.30;99.90;;;-0.54;59.42;101572.13;5055091;28;20252;-73
2023/02/10 06:13:20;;;;;;;23.80;12.07;;;-0.40;99.90;;;-0.55;59.83;101572.91;5054266;28;20677;-73
2023/02/10 06:15:48;;;;;;;20.30;10.90;;;-0.30;99.90;;;-0.57;59.85;101574.47;5048631;28;20283;-73
2023/02/10 06:18:17;;;;;;;20.00;11.63;;;-0.30;99.90;;;-0.59;59.96;101575.16;5051052;28;20209;-73
2023/02/10 06:20:46;;;;;;;19.27;11.40;;;-0.30;99.90;;;-0.59;60.08;101563.41;5049537;28;20687;-75
2023/02/10 06:23:15;;;;;;;21.70;11.53;;;-0.30;99.90;;;-0.58;60.14;101572.72;5052024;28;20560;-72
2023/02/10 06:25:44;;;;;;;18.87;11.93;;;-0.30;99.90;;;-0.56;60.55;101573.66;5047938;28;20655;-72
2023/02/10 06:28:14;;;;;;;28.03;11.93;;;-0.30;99.90;;;-0.53;60.69;101572.97;5051518;28;20257;-72
2023/02/10 06:30:43;;;;;;;19.20;11.87;;;-0.30;99.90;;;-0.52;60.56;101583.19;5043584;28;20265;-73
2023/02/10 06:33:11;;;;;;;22.43;12.40;;;-0.30;99.90;;;-0.54;61.07;101568.72;5043144;28;20195;-75
2023/02/10 06:35:40;;;;;;;23.43;12.43;;;-0.20;99.90;;;-0.46;60.76;101571.69;5052754;28;20651;-72
2023/02/10 06:38:09;;;;;;;20.13;12.17;;;-0.20;99.90;;;-0.45;60.97;101570.88;5050957;28;20210;-68
2023/02/10 06:40:37;;;;;;;20.80;11.83;;;-0.20;99.90;;;-0.43;61.13;101575.25;5053857;28;20574;-70
2023/02/10 06:43:06;;;;;;;21.83;11.90;;;-0.20;99.90;;;-0.40;61.25;101572.06;5049355;28;20674;-71
2023/02/10 06:45:35;;;;;;;20.60;11.47;;;-0.10;99.90;;;-0.37;61.06;101579.78;5050900;28;20209;-73
2023/02/10 06:48:04;;;;;;;24.37;11.73;;;-0.10;99.90;;;-0.35;61.12;101579.09;5050479;28;20649;-68
2023/02/10 06:50:33;;;;;;;24.27;12.97;;;-0.10;99.90;;;-0.31;61.27;101585.22;5058564;28;20206;-70
2023/02/10 06:53:02;;;;;;;23.87;13.30;;;-0.10;99.90;;;-0.23;61.27;101588.19;5052901;28;20260;-70
2023/02/10 06:55:30;;;;;;;22.73;12.37;;;0.00;99.90;;;-0.17;61.13;101588.53;5059248;28;20225;-70
2023/02/10 06:58:00;;;;;;;22.93;12.00;;;0.00;99.90;;;-0.13;61.00;101586.25;5067983;28;20195;-68
2023/02/10 07:00:29;;;;;;;21.30;12.80;;;0.10;99.90;;;-0.10;60.73;101585.56;5068522;28;20264;-70
2023/02/10 07:02:59;;;;;;;21.77;13.30;;;0.10;99.90;;;-0.05;61.02;101585.03;5069534;28;20281;-69
2023/02/10 07:05:28;;;;;;;24.17;12.97;;;0.20;99.90;;;0.07;60.63;101583.97;5070265;28;20685;-70
2023/02/10 07:07:58;;;;;;;23.77;12.87;;;0.30;99.90;;;0.16;60.46;101595.50;5070620;28;20236;-70
2023/02/10 07:10:27;;;;;;;21.43;12.23;;;0.40;99.90;;;0.21;60.33;101598.28;5066856;28;20210;-69
2023/02/10 07:12:56;;;;;;;21.70;12.93;;;0.40;99.90;;;0.23;60.36;101591.63;5064237;28;20182;-71
2023/02/10 07:15:25;;;;;;;26.73;12.57;;;0.50;99.90;;;0.28;59.84;101591.88;5073147;28;20245;-68
2023/02/10 07:17:53;;;;;;;21.17;12.13;;;0.50;99.90;;;0.31;59.97;101585.31;5077600;28;20204;-70
2023/02/10 07:20:25;;;;;;;22.70;12.60;;;0.50;99.90;;;0.32;60.29;101586.19;5075641;28;20265;-70
2023/02/10 07:22:54;;;;;;;24.30;13.20;;;0.50;99.90;;;0.38;59.97;101597.53;5070880;28;20181;-69
2023/02/10 07:25:23;;;;;;;25.67;13.00;;;0.60;99.90;;;0.44;60.03;101597.88;5078155;28;20197;-69
2023/02/10 07:27:51;;;;;;;21.77;13.20;;;0.60;99.90;;;0.56;60.23;101596.81;5075700;28;20190;-68
2023/02/10 07:30:20;;;;;;;19.47;12.77;;;0.70;99.90;;;0.60;59.94;101591.97;5076329;28;20202;-68
2023/02/10 07:32:49;;;;;;;23.03;13.20;;;0.80;99.90;;;0.65;59.75;101600.69;5077737;28;20256;-68
2023/02/10 07:35:18;;;;;;;23.17;11.80;;;0.80;99.90;;;0.75;59.81;101603.72;5077630;28;20247;-68
2023/02/10 07:37:49;;;;;;;22.83;13.83;;;1.00;99.90;;;0.88;59.68;101606.09;5076210;28;20430;-69
2023/02/10 07:40:18;;;;;;;27.00;13.50;;;1.10;99.90;;;1.06;59.49;101613.81;5064603;28;20194;-69
2023/02/10 07:42:46;;;;;;;21.10;12.17;;;1.30;99.90;;;1.18;58.56;101609.38;5076640;28;20198;-69
2023/02/10 07:45:16;;;;;;;22.87;14.07;;;1.40;99.90;;;1.28;58.71;101609.03;5077493;28;20201;-68
2023/02/10 07:47:44;;;;;;;24.20;13.10;;;1.50;99.90;;;1.39;58.43;101601.97;5072053;28;20219;-73
2023/02/10 07:50:13;;;;;;;27.33;15.00;;;1.60;99.90;;;1.55;58.15;101603.63;5057702;28;20197;-74
2023/02/10 07:52:43;;;;;;;26.00;13.90;;;1.80;99.90;;;1.65;58.51;101601.59;5050500;28;20206;-70
2023/02/10 07:55:13;;;;;;;21.57;12.67;;;1.90;99.90;;;1.71;57.46;101598.50;5065939;28;20213;-69
2023/02/10 07:57:42;;;;;;;23.93;13.83;;;1.90;99.90;;;1.78;57.83;101603.09;5057763;28;20248;-71
2023/02/10 08:00:13;;;;;;;23.47;14.07;;;2.00;99.90;;;1.85;57.75;101612.75;5057769;28;20210;-74
2023/02/10 08:02:41;;;;;;;28.03;13.97;;;2.10;99.90;;;1.95;57.43;101603.88;5064179;28;21053;-71
2023/02/10 08:05:10;;;;;;;25.43;14.10;;;2.10;99.90;;;2.02;57.53;101602.53;5065723;28;20203;-73
2023/02/10 08:07:39;;;;;;;25.20;14.10;;;2.20;99.90;;;2.02;56.49;101587.25;5067601;28;20221;-68
2023/02/10 08:10:08;;;;;;;28.63;15.17;;;2.20;99.90;;;2.04;56.81;101585.69;5063456;28;20210;-67
2023/02/10 08:12:38;;;;;;;27.90;14.97;;;2.20;99.90;;;2.07;56.83;101579.06;5060761;28;20614;-66
2023/02/10 08:15:08;;;;;;;25.00;14.83;;;2.20;99.90;;;2.10;57.48;101581.78;5063872;28;20210;-70
2023/02/10 08:17:39;;;;;;;24.37;14.83;;;2.30;99.90;;;2.23;57.12;101590.84;5076844;28;20198;-68
2023/02/10 08:20:09;;;;;;;23.23;14.33;;;2.40;99.90;;;2.26;57.62;101580.81;5067449;28;20217;-68
2023/02/10 08:22:37;;;;;;;25.33;14.23;;;2.50;99.90;;;2.27;57.44;101590.16;5066693;28;20198;-67
2023/02/10 08:25:07;;;;;;;27.90;14.07;;;2.50;99.90;;;2.19;57.22;101596.56;5065013;28;20221;-67
2023/02/10 08:27:36;;;;;;;23.70;14.40;;;2.40;99.90;;;2.05;57.33;101574.72;5065310;28;20268;-67
2023/02/10 08:30:06;;;;;;;27.07;13.77;;;2.20;99.90;;;1.94;57.75;101585.22;5062224;28;20214;-66
2023/02/10 08:32:34;;;;;;;22.73;13.73;;;2.20;99.90;;;1.79;58.00;101594.66;5042765;28;20339;-69
2023/02/10 08:35:03;;;;;;;24.40;14.20;;;2.00;99.90;;;1.66;58.75;101597.41;5047583;28;20230;-67
2023/02/10 08:37:31;;;;;;;25.90;14.53;;;1.90;99.90;;;1.56;59.68;101605.38;5044534;28;20214;-68
2023/02/10 08:40:00;;;;;;;23.90;13.20;;;1.80;99.90;;;1.50;59.85;101597.44;5047240;28;20240;-69
2023/02/10 08:42:28;;;;;;;24.30;14.60;;;1.70;99.90;;;1.36;60.20;101584.94;5069479;28;20198;-67
2023/02/10 08:44:58;;;;;;;24.73;14.30;;;1.60;99.90;;;1.32;60.88;101594.81;5055552;28;20206;-66
2023/02/10 08:47:27;;;;;;;25.53;14.27;;;1.50;99.90;;;1.27;61.48;101591.19;5039463;28;20247;-65
2023/02/10 08:49:55;;;;;;;24.93;14.37;;;1.50;99.90;;;1.23;61.06;101599.47;5049932;28;20214;-66
2023/02/10 08:52:24;;;;;;;29.47;15.60;;;1.40;99.90;;;1.18;61.76;101611.91;5050159;28;20553;-65
2023/02/10 08:54:52;;;;;;;24.70;15.20;;;1.40;99.90;;;1.11;62.08;101600.56;5050732;28;20226;-66
2023/02/10 08:57:21;;;;;;;28.47;15.60;;;1.30;99.90;;;1.06;62.16;101608.72;5051347;28;20202;-65
2023/02/10 08:59:49;;;;;;;22.47;15.43;;;1.20;99.90;;;1.03;62.81;101609.47;5049878;28;20213;-65
2023/02/10 09:02:19;;;;;;;30.13;15.37;;;1.30;99.90;;;1.06;62.99;101627.38;5047161;28;20229;-64
2023/02/10 09:04:48;;;;;;;27.50;14.93;;;1.30;99.90;;;1.07;62.98;101628.22;5049307;28;20244;-64
2023/02/10 09:07:31;;;;;;;25.80;15.03;;;1.20;99.90;;;1.04;63.03;101630.63;5038452;28;20226;-64
2023/02/10 09:10:00;;;;;;;28.40;14.50;;;1.30;99.90;;;1.05;63.42;101637.44;5050272;28;20214;-65
2023/02/10 09:12:28;;;;;;;28.27;16.10;;;1.20;99.90;;;1.03;63.26;101641.56;5049482;28;20256;-65
2023/02/10 09:14:57;;;;;;;29.50;14.77;;;1.20;99.90;;;1.05;63.51;101640.00;5047229;28;20387;-64
2023/02/10 09:17:26;;;;;;;27.00;15.73;;;1.20;99.90;;;1.07;63.91;101653.59;5050511;28;20202;-65
2023/02/10 09:19:55;;;;;;;26.27;14.80;;;1.30;99.90;;;1.09;64.12;101647.84;5050242;28;20206;-63
2023/02/10 09:22:23;;;;;;;27.50;16.27;;;1.30;99.90;;;1.13;63.74;101643.78;5050005;28;20279;-66
2023/02/10 09:24:52;;;;;;;28.13;15.63;;;1.30;99.90;;;1.17;63.86;101649.09;5048144;28;20209;-66
2023/02/10 09:27:21;;;;;;;28.03;15.10;;;1.40;99.90;;;1.23;63.62;101652.78;5050534;28;20284;-66
2023/02/10 09:29:50;;;;;;;24.60;13.07;;;1.40;99.90;;;1.25;63.54;101644.41;5050300;28;20230;-64
2023/02/10 09:32:19;;;;;;;28.77;16.00;;;1.40;99.90;;;1.25;63.78;101643.56;5046978;28;20253;-66
2023/02/10 09:34:48;;;;;;;26.60;15.67;;;1.50;99.90;;;1.29;63.60;101659.03;5053407;28;20221;-65
2023/02/10 09:37:17;;;;;;;24.93;14.57;;;1.60;99.90;;;1.33;63.58;101663.50;5054944;28;20263;-63
2023/02/10 09:39:45;;;;;;;28.30;17.03;;;1.60;99.90;;;1.40;63.70;101665.56;5054285;28;20256;-65
2023/02/10 09:42:27;;;;;;;28.53;16.60;;;1.60;99.90;;;1.48;63.52;101667.63;5055129;28;20205;-63
2023/02/10 09:45:03;;;;;;;29.43;15.43;;;1.70;99.90;;;1.51;63.33;101670.28;5050806;28;20593;-63
2023/02/10 09:47:44;;;;;;;27.50;15.60;;;1.70;99.90;;;1.50;63.25;101671.94;5052350;28;20728;-65
2023/02/10 09:50:42;;;;;;;27.43;15.63;;;1.70;99.90;;;1.50;63.26;101682.13;5053995;28;20251;-64
2023/02/10 09:53:18;;;;;;;25.67;14.63;;;1.80;99.90;;;1.50;63.41;101673.63;5050327;28;20206;-65
2023/02/10 09:55:50;;;;;;;26.77;15.20;;;1.70;99.90;;;1.44;63.12;101672.53;5054986;28;20343;-65
2023/02/10 09:58:27;;;;;;;26.80;15.53;;;1.60;99.90;;;1.38;63.38;101654.44;5055934;28;20272;-64
2023/02/10 10:01:01;;;;;;;27.40;15.83;;;1.60;99.90;;;1.37;63.77;101650.16;5051417;28;20263;-64
2023/02/10 10:03:44;;;;;;;32.53;16.30;;;1.60;99.90;;;1.36;64.16;101648.41;5048523;28;20540;-63
2023/02/10 10:06:23;;;;;;;31.00;16.63;;;1.60;99.90;;;1.40;63.82;101651.94;5054592;28;20197;-63
2023/02/10 10:09:04;;;;;;;30.43;15.87;;;1.70;99.90;;;1.44;64.29;101646.25;5051101;28;20204;-64
2023/02/10 10:11:39;;;;;;;27.87;16.80;;;1.60;99.90;;;1.48;64.49;101642.22;5043738;28;20210;-65
2023/02/10 10:14:19;;;;;;;28.70;15.33;;;1.70;99.90;;;1.60;64.18;101647.91;5053252;28;20202;-63
2023/02/10 10:17:28;;;;;;;37.93;21.37;;;1.80;99.90;;;1.66;63.82;101643.16;5048188;28;20686;-66
2023/02/10 10:20:30;;;;;;;25.43;15.03;;;1.90;99.90;;;1.74;63.39;101644.38;5053278;28;20657;-66
2023/02/10 10:23:18;;;;;;;31.50;15.17;;;1.90;99.90;;;1.76;63.54;101639.38;5042077;28;20213;-66